American Canyon, California
Current Conditions -  °F | °C
As of 5:54 AM on Saturday 25 Oct 2014 (Local Time) from KAPC Reporting Station
Moderate Rain Moderate Rain  
Wind Chill: 60°   Ceiling: 500
Heat Index: 60°   Visibility: 2mi
Dew Point: 60°   Wind: 12mph
Humidity: 100%   Direction: 220°SW
Pressure: 29.93"   Gusts: NA
Location:  38.17°N, 122.25°W
Report Text: KAPC 251254Z AUTO 22010KT 2SM RA BR BKN005 BKN009 OVC015 16/16 A2993 RMK AO2 SLP127 P0013 T01560156
Loading
Personal Weather Stations






























Interactive Weather Map
Tropical Storm Tracking
New forecast layout! Learn more

10-Day Weather Forecast

Advertisements
Track Severe Weather on mobile